Time;durP1;ratioP1;P1;durP2;ratioP2;P2;SDS_P1;SDS_P2;PMS_P1;PMS_P2;Temp;Humidity;BMP_temperature;BMP_pressure;BME280_temperature;BME280_humidity;BME280_pressure;Samples;Min_cycle;Max_cycle;Signal;HPM_P1;HPM_P2
2021/08/30 00:01:23;;;;;;;;;1.00;1.00;;;;;;;;6304537;22;45923;-73
2021/08/30 00:03:49;;;;;;;;;4.00;3.00;;;;;;;;6305087;22;45442;-73
2021/08/30 00:06:14;;;;;;;;;2.50;2.50;;;;;;;;6304830;22;45394;-73
2021/08/30 00:08:39;;;;;;;;;2.50;2.00;;;;;;;;6304686;22;45276;-72
2021/08/30 00:11:04;;;;;;;;;4.75;3.25;;;;;;;;6303871;22;46357;-73
2021/08/30 00:13:30;;;;;;;;;6.75;3.75;;;;;;;;6304993;22;45225;-73
2021/08/30 00:15:56;;;;;;;;;3.50;3.00;;;;;;;;6305354;22;45103;-73
2021/08/30 00:18:23;;;;;;;;;6.00;6.00;;;;;;;;6304794;22;45337;-73
2021/08/30 00:20:48;;;;;;;;;4.00;4.00;;;;;;;;6304327;22;46954;-73
2021/08/30 00:23:13;;;;;;;;;4.00;4.00;;;;;;;;6305062;22;45419;-73
2021/08/30 00:25:38;;;;;;;;;6.00;6.00;;;;;;;;6304857;22;45283;-73
2021/08/30 00:28:03;;;;;;;;;4.00;3.25;;;;;;;;6304718;22;45342;-73
2021/08/30 00:30:28;;;;;;;;;3.75;3.75;;;;;;;;6304687;22;45236;-73
2021/08/30 00:32:54;;;;;;;;;5.00;4.00;;;;;;;;6304985;22;45272;-73
2021/08/30 00:35:19;;;;;;;;;8.00;7.00;;;;;;;;6305189;22;45281;-73
2021/08/30 00:37:45;;;;;;;;;7.00;4.75;;;;;;;;6276755;22;45281;-73
2021/08/30 00:40:11;;;;;;;;;4.75;4.75;;;;;;;;6303910;22;47537;-73
2021/08/30 00:42:36;;;;;;;;;6.75;6.25;;;;;;;;6304263;22;45313;-74
2021/08/30 00:45:03;;;;;;;;;7.00;6.25;;;;;;;;6304546;22;45259;-73
2021/08/30 00:47:28;;;;;;;;;8.25;5.00;;;;;;;;6304643;22;45175;-72
2021/08/30 00:49:54;;;;;;;;;6.25;6.25;;;;;;;;6304232;22;45835;-73
2021/08/30 00:52:19;;;;;;;;;9.00;9.00;;;;;;;;6304101;22;45221;-73
2021/08/30 00:54:45;;;;;;;;;7.75;6.25;;;;;;;;6303928;22;45282;-72
2021/08/30 00:57:10;;;;;;;;;7.50;6.50;;;;;;;;6304662;22;45391;-73
2021/08/30 00:59:39;;;;;;;;;8.25;6.75;;;;;;;;6303586;22;46123;-73
2021/08/30 01:02:05;;;;;;;;;7.00;7.00;;;;;;;;6303887;22;45311;-72
2021/08/30 01:04:30;;;;;;;;;7.00;7.00;;;;;;;;6304479;22;45415;-72
2021/08/30 01:07:03;;;;;;;;;6.50;6.50;;;;;;;;6304666;22;45342;-72
2021/08/30 01:09:46;;;;;;;;;4.75;4.75;;;;;;;;6303593;22;47425;-72
2021/08/30 01:12:26;;;;;;;;;7.00;5.75;;;;;;;;6304539;22;45253;-72
2021/08/30 01:15:10;;;;;;;;;6.50;6.50;;;;;;;;6304163;22;45399;-72
2021/08/30 01:17:36;;;;;;;;;9.25;6.50;;;;;;;;6303585;22;45400;-72
2021/08/30 01:20:10;;;;;;;;;10.00;7.75;;;;;;;;6304117;22;45372;-72
2021/08/30 01:22:41;;;;;;;;;10.00;7.75;;;;;;;;6304021;22;45288;-72
2021/08/30 01:25:08;;;;;;;;;9.00;8.00;;;;;;;;6304596;22;45324;-72
2021/08/30 01:27:33;;;;;;;;;7.75;7.00;;;;;;;;6304751;22;45393;-72
2021/08/30 01:30:10;;;;;;;;;8.00;6.00;;;;;;;;6303956;22;45397;-72
2021/08/30 01:32:42;;;;;;;;;11.50;9.75;;;;;;;;6304013;22;45349;-72
2021/08/30 01:35:09;;;;;;;;;9.50;9.50;;;;;;;;6304745;22;45230;-72
2021/08/30 01:37:36;;;;;;;;;8.25;8.25;;;;;;;;6303609;22;45403;-72
2021/08/30 01:40:03;;;;;;;;;9.25;7.50;;;;;;;;6303880;22;46241;-72
2021/08/30 01:42:29;;;;;;;;;6.75;5.00;;;;;;;;6303768;22;45252;-71
2021/08/30 01:44:55;;;;;;;;;12.00;10.75;;;;;;;;6304226;22;45280;-72
2021/08/30 01:47:21;;;;;;;;;10.25;10.00;;;;;;;;6304706;22;45204;-71
2021/08/30 01:49:49;;;;;;;;;11.00;10.00;;;;;;;;6303310;22;45309;-71
2021/08/30 01:52:15;;;;;;;;;7.50;7.50;;;;;;;;6303560;22;45360;-71
2021/08/30 01:54:40;;;;;;;;;12.50;10.25;;;;;;;;6304637;22;45191;-72
2021/08/30 01:57:06;;;;;;;;;13.25;10.75;;;;;;;;6304840;22;45236;-71
2021/08/30 02:02:16;;;;;;;;;11.25;11.00;;;;;;;;6304368;22;45304;-70
2021/08/30 02:04:41;;;;;;;;;12.75;11.00;;;;;;;;6304352;22;45308;-71
2021/08/30 02:07:07;;;;;;;;;10.25;9.25;;;;;;;;6304068;22;45419;-71
2021/08/30 02:09:32;;;;;;;;;10.00;9.00;;;;;;;;6303570;22;46100;-71
2021/08/30 02:11:57;;;;;;;;;11.00;8.25;;;;;;;;6303984;22;45142;-71
2021/08/30 02:14:22;;;;;;;;;8.75;8.00;;;;;;;;6304505;22;45237;-70
2021/08/30 02:16:48;;;;;;;;;9.25;7.50;;;;;;;;6303792;22;45155;-71
2021/08/30 02:19:26;;;;;;;;;12.75;8.25;;;;;;;;6304079;22;46218;-71
2021/08/30 02:21:55;;;;;;;;;12.00;10.00;;;;;;;;6303853;22;45162;-71
2021/08/30 02:24:41;;;;;;;;;7.75;7.75;;;;;;;;6304220;22;45255;-71
2021/08/30 02:27:09;;;;;;;;;9.50;8.50;;;;;;;;6304251;22;46045;-71
2021/08/30 02:29:46;;;;;;;;;9.00;8.00;;;;;;;;6275376;22;46388;-72
2021/08/30 02:32:12;;;;;;;;;10.00;8.00;;;;;;;;6303828;22;45303;-71
2021/08/30 02:34:41;;;;;;;;;10.25;8.00;;;;;;;;6303824;22;45363;-71
2021/08/30 02:37:08;;;;;;;;;9.25;9.25;;;;;;;;6304069;22;45190;-71
2021/08/30 02:39:34;;;;;;;;;10.75;9.75;;;;;;;;6303904;22;46283;-72
2021/08/30 02:42:00;;;;;;;;;12.75;9.75;;;;;;;;6303855;22;45256;-71
2021/08/30 02:44:25;;;;;;;;;9.50;8.75;;;;;;;;6304123;22;45269;-71
2021/08/30 02:46:51;;;;;;;;;8.00;8.00;;;;;;;;6304156;22;45220;-70
2021/08/30 02:49:16;;;;;;;;;11.00;11.00;;;;;;;;6303555;22;45868;-71
2021/08/30 02:51:42;;;;;;;;;9.00;9.00;;;;;;;;6304117;22;45321;-71
2021/08/30 02:54:08;;;;;;;;;9.50;9.25;;;;;;;;6303646;22;45288;-71
2021/08/30 02:56:35;;;;;;;;;8.00;8.00;;;;;;;;6303516;22;45304;-71
2021/08/30 02:59:01;;;;;;;;;13.50;12.25;;;;;;;;6303783;22;45312;-71
2021/08/30 03:01:26;;;;;;;;;11.00;10.00;;;;;;;;6303363;22;45300;-71
2021/08/30 03:03:52;;;;;;;;;10.00;9.75;;;;;;;;6303292;22;45276;-70
2021/08/30 03:06:17;;;;;;;;;12.50;11.75;;;;;;;;6303571;22;45430;-71
2021/08/30 03:08:43;;;;;;;;;11.00;10.00;;;;;;;;6303386;22;46202;-71
2021/08/30 03:11:10;;;;;;;;;10.00;9.50;;;;;;;;6303646;22;45229;-71
2021/08/30 03:13:38;;;;;;;;;15.25;8.75;;;;;;;;6303792;22;45209;-72
2021/08/30 03:16:03;;;;;;;;;10.25;10.25;;;;;;;;6303871;22;45293;-71
2021/08/30 03:18:28;;;;;;;;;12.00;9.75;;;;;;;;6302701;22;47081;-70
2021/08/30 03:20:55;;;;;;;;;12.00;12.00;;;;;;;;6303544;22;45338;-71
2021/08/30 03:23:21;;;;;;;;;12.50;10.00;;;;;;;;6303945;22;45313;-71
2021/08/30 03:25:46;;;;;;;;;14.00;12.50;;;;;;;;6303254;22;45252;-71
2021/08/30 03:28:12;;;;;;;;;12.00;10.25;;;;;;;;6303724;22;45840;-71
2021/08/30 03:30:38;;;;;;;;;12.00;12.00;;;;;;;;6303614;22;45229;-72
2021/08/30 03:33:04;;;;;;;;;10.00;8.50;;;;;;;;6303482;22;45170;-71
2021/08/30 03:35:30;;;;;;;;;9.50;9.50;;;;;;;;6303774;22;45254;-72
2021/08/30 03:37:56;;;;;;;;;11.25;9.00;;;;;;;;6302902;22;47334;-71
2021/08/30 03:40:22;;;;;;;;;15.00;13.75;;;;;;;;6302615;22;45532;-71
2021/08/30 03:42:47;;;;;;;;;17.75;16.75;;;;;;;;6303150;22;45279;-72
2021/08/30 03:45:13;;;;;;;;;13.00;12.00;;;;;;;;6302954;22;45326;-72
2021/08/30 03:47:38;;;;;;;;;14.50;13.50;;;;;;;;6302818;22;45309;-73
2021/08/30 03:50:04;;;;;;;;;9.00;8.75;;;;;;;;6302718;22;45321;-71
2021/08/30 03:52:30;;;;;;;;;9.75;9.75;;;;;;;;6302746;22;45271;-72
2021/08/30 03:54:56;;;;;;;;;17.75;10.75;;;;;;;;6302613;22;45456;-71
2021/08/30 03:57:22;;;;;;;;;12.50;9.75;;;;;;;;6302395;22;46171;-72
2021/08/30 03:59:52;;;;;;;;;27.50;24.50;;;;;;;;6303203;22;45306;-71
2021/08/30 04:02:18;;;;;;;;;18.75;15.50;;;;;;;;6302443;22;45380;-71
2021/08/30 04:04:44;;;;;;;;;10.75;10.50;;;;;;;;6302674;22;45361;-73
2021/08/30 04:07:09;;;;;;;;;16.25;14.25;;;;;;;;6303216;22;46484;-71
2021/08/30 04:09:36;;;;;;;;;15.75;13.25;;;;;;;;6302315;22;45238;-71
2021/08/30 04:12:02;;;;;;;;;15.75;13.50;;;;;;;;6274850;22;45334;-72
2021/08/30 04:14:27;;;;;;;;;16.00;14.75;;;;;;;;6303784;22;45358;-72
2021/08/30 04:16:52;;;;;;;;;15.75;15.75;;;;;;;;6275561;22;48257;-72
2021/08/30 04:19:18;;;;;;;;;13.75;11.50;;;;;;;;6304238;22;45373;-72
2021/08/30 04:21:43;;;;;;;;;17.25;16.50;;;;;;;;6303964;22;45311;-72
2021/08/30 04:24:08;;;;;;;;;16.00;15.50;;;;;;;;6304383;22;45213;-71
2021/08/30 04:26:35;;;;;;;;;21.25;18.25;;;;;;;;6303730;22;46096;-73
2021/08/30 04:29:00;;;;;;;;;44.50;37.50;;;;;;;;6304632;22;45305;-72
2021/08/30 04:31:25;;;;;;;;;22.50;20.25;;;;;;;;6303558;22;45229;-72
2021/08/30 04:33:51;;;;;;;;;16.25;15.00;;;;;;;;6304239;22;45307;-72
2021/08/30 04:36:16;;;;;;;;;22.50;19.00;;;;;;;;6304372;22;45927;-72
2021/08/30 04:38:41;;;;;;;;;18.50;16.75;;;;;;;;6304333;22;45324;-73
2021/08/30 04:41:06;;;;;;;;;18.50;16.00;;;;;;;;6303753;22;45254;-72
2021/08/30 04:43:32;;;;;;;;;22.00;19.25;;;;;;;;6304138;22;45399;-72
2021/08/30 04:45:57;;;;;;;;;16.00;15.00;;;;;;;;6304286;22;45272;-73
2021/08/30 04:48:23;;;;;;;;;21.50;18.00;;;;;;;;6303825;22;45231;-73
2021/08/30 04:50:48;;;;;;;;;19.25;15.50;;;;;;;;6303434;22;45267;-73
2021/08/30 04:53:13;;;;;;;;;17.75;16.50;;;;;;;;6304305;22;45406;-73
2021/08/30 04:55:38;;;;;;;;;24.25;18.50;;;;;;;;6303326;22;47091;-72
2021/08/30 04:58:04;;;;;;;;;16.00;14.75;;;;;;;;6303744;22;45291;-72
2021/08/30 05:00:30;;;;;;;;;25.50;23.00;;;;;;;;6303052;22;45412;-73
2021/08/30 05:02:55;;;;;;;;;19.75;18.75;;;;;;;;6303721;22;45384;-73
2021/08/30 05:05:21;;;;;;;;;22.00;18.75;;;;;;;;6303750;22;45898;-73
2021/08/30 05:07:46;;;;;;;;;24.00;23.50;;;;;;;;6303701;22;45328;-73
2021/08/30 05:10:13;;;;;;;;;20.50;20.00;;;;;;;;6303824;22;45426;-73
2021/08/30 05:12:38;;;;;;;;;27.50;23.00;;;;;;;;6303991;22;45278;-72
2021/08/30 05:15:04;;;;;;;;;23.75;22.00;;;;;;;;6303290;22;46100;-73
2021/08/30 05:17:29;;;;;;;;;19.00;18.25;;;;;;;;6275591;22;45261;-74
2021/08/30 05:19:54;;;;;;;;;17.50;16.75;;;;;;;;6303888;22;45218;-71
2021/08/30 05:22:19;;;;;;;;;26.00;23.50;;;;;;;;6303127;22;45395;-73
2021/08/30 05:24:46;;;;;;;;;22.25;21.50;;;;;;;;6303393;22;45938;-74
2021/08/30 05:27:11;;;;;;;;;25.25;24.25;;;;;;;;6303543;22;45240;-73
2021/08/30 05:29:36;;;;;;;;;22.25;20.00;;;;;;;;6301936;22;45235;-73
2021/08/30 05:32:02;;;;;;;;;21.00;17.75;;;;;;;;6302992;22;45402;-73
2021/08/30 05:34:27;;;;;;;;;25.00;24.25;;;;;;;;6302832;22;46289;-73
2021/08/30 05:36:52;;;;;;;;;22.50;21.50;;;;;;;;6302580;22;45281;-73
2021/08/30 05:39:17;;;;;;;;;26.50;21.00;;;;;;;;6302837;22;45230;-72
2021/08/30 05:41:43;;;;;;;;;33.25;30.75;;;;;;;;6274447;22;45444;-72
2021/08/30 05:44:08;;;;;;;;;26.00;25.75;;;;;;;;6301951;22;45398;-72
2021/08/30 05:46:33;;;;;;;;;29.00;26.00;;;;;;;;6274749;22;45381;-74
2021/08/30 05:48:59;;;;;;;;;24.00;21.25;;;;;;;;6303394;22;45599;-73
2021/08/30 05:51:24;;;;;;;;;28.25;25.00;;;;;;;;6302792;22;45392;-73
2021/08/30 05:53:49;;;;;;;;;33.25;30.75;;;;;;;;6303069;22;46091;-73
2021/08/30 05:56:14;;;;;;;;;31.75;27.75;;;;;;;;6302200;22;45304;-75
2021/08/30 05:58:39;;;;;;;;;31.75;27.50;;;;;;;;6302805;22;45337;-74
2021/08/30 06:01:05;;;;;;;;;30.75;29.50;;;;;;;;6303299;22;45369;-73
2021/08/30 06:03:30;;;;;;;;;38.00;31.00;;;;;;;;6302087;22;46355;-74
2021/08/30 06:05:56;;;;;;;;;28.25;26.50;;;;;;;;6303392;22;45355;-74
2021/08/30 06:08:21;;;;;;;;;28.75;27.75;;;;;;;;6302512;22;45316;-74
2021/08/30 06:10:46;;;;;;;;;33.00;29.00;;;;;;;;6302906;22;45428;-73
2021/08/30 06:13:11;;;;;;;;;34.50;31.50;;;;;;;;6274945;22;46184;-73
2021/08/30 06:15:36;;;;;;;;;28.25;26.50;;;;;;;;6302763;22;45219;-74
2021/08/30 06:18:02;;;;;;;;;36.25;30.00;;;;;;;;6303125;22;45318;-73
2021/08/30 06:20:27;;;;;;;;;37.50;32.50;;;;;;;;6302839;22;45403;-73
2021/08/30 06:22:52;;;;;;;;;41.75;33.00;;;;;;;;6302503;22;46420;-73
2021/08/30 06:25:17;;;;;;;;;31.00;29.00;;;;;;;;6302693;22;45450;-73
2021/08/30 06:27:43;;;;;;;;;36.25;31.50;;;;;;;;6302508;22;45205;-73
2021/08/30 06:30:10;;;;;;;;;38.25;31.25;;;;;;;;6302365;22;45482;-71
2021/08/30 06:32:35;;;;;;;;;30.00;30.00;;;;;;;;6302043;22;45342;-73
2021/08/30 06:35:00;;;;;;;;;34.75;32.00;;;;;;;;6274454;22;45388;-73
2021/08/30 06:37:26;;;;;;;;;34.00;28.25;;;;;;;;6301684;22;45293;-73
2021/08/30 06:39:51;;;;;;;;;37.75;31.25;;;;;;;;6303516;22;45323;-74
2021/08/30 06:42:16;;;;;;;;;39.75;30.50;;;;;;;;6302072;22;47124;-73
2021/08/30 06:44:41;;;;;;;;;32.50;32.00;;;;;;;;6302228;22;45188;-74
2021/08/30 06:47:06;;;;;;;;;30.25;22.75;;;;;;;;6303051;22;45275;-73
2021/08/30 06:49:32;;;;;;;;;38.00;33.50;;;;;;;;6302466;22;45440;-73
2021/08/30 06:51:57;;;;;;;;;38.00;32.75;;;;;;;;6301918;22;46117;-74
2021/08/30 06:54:23;;;;;;;;;29.75;27.25;;;;;;;;6273883;22;45299;-75
2021/08/30 06:56:48;;;;;;;;;33.00;27.25;;;;;;;;6301336;22;45315;-75
2021/08/30 06:59:13;;;;;;;;;30.50;26.75;;;;;;;;6302419;22;45329;-75
2021/08/30 07:01:39;;;;;;;;;38.25;30.75;;;;;;;;6302206;22;45264;-74
2021/08/30 07:04:04;;;;;;;;;35.50;29.75;;;;;;;;6302058;22;45515;-74
2021/08/30 07:06:30;;;;;;;;;31.00;26.00;;;;;;;;6301896;22;45402;-74
2021/08/30 07:08:55;;;;;;;;;33.75;32.00;;;;;;;;6302381;22;45308;-75
2021/08/30 07:11:20;;;;;;;;;31.00;26.00;;;;;;;;6301736;22;45331;-75
2021/08/30 07:13:45;;;;;;;;;28.50;25.00;;;;;;;;6303047;22;45354;-75
2021/08/30 07:16:10;;;;;;;;;30.00;26.50;;;;;;;;6302839;22;45324;-75
2021/08/30 07:18:36;;;;;;;;;24.00;21.75;;;;;;;;6302712;22;45432;-75
2021/08/30 07:21:01;;;;;;;;;35.00;31.50;;;;;;;;6301375;22;46190;-75
2021/08/30 07:23:29;;;;;;;;;21.25;20.00;;;;;;;;6274152;22;45330;-75
2021/08/30 07:25:55;;;;;;;;;25.75;23.50;;;;;;;;6300985;22;45320;-75
2021/08/30 07:28:20;;;;;;;;;27.25;27.25;;;;;;;;6301304;22;45423;-75
2021/08/30 07:30:45;;;;;;;;;22.00;22.00;;;;;;;;6301927;22;45881;-75
2021/08/30 07:33:10;;;;;;;;;25.75;22.50;;;;;;;;6301692;22;45159;-76
2021/08/30 07:35:36;;;;;;;;;24.50;22.50;;;;;;;;6301668;22;45424;-75
2021/08/30 07:38:01;;;;;;;;;28.25;23.00;;;;;;;;6302568;22;45190;-75
2021/08/30 07:40:26;;;;;;;;;26.75;23.50;;;;;;;;6301655;22;45975;-75
2021/08/30 07:42:51;;;;;;;;;24.00;22.25;;;;;;;;6301508;22;45151;-74
2021/08/30 07:45:17;;;;;;;;;26.25;24.25;;;;;;;;6301884;22;45265;-75
2021/08/30 07:47:42;;;;;;;;;24.25;21.75;;;;;;;;6273794;22;45426;-73
2021/08/30 07:50:08;;;;;;;;;28.75;23.25;;;;;;;;6303113;22;46088;-74
2021/08/30 07:52:33;;;;;;;;;22.50;21.75;;;;;;;;6302902;22;45240;-74
2021/08/30 07:54:59;;;;;;;;;24.00;19.25;;;;;;;;6302968;22;45267;-74
2021/08/30 07:57:24;;;;;;;;;22.75;20.75;;;;;;;;6302819;22;45404;-74
2021/08/30 07:59:49;;;;;;;;;24.00;19.50;;;;;;;;6303221;22;45240;-75
2021/08/30 08:02:15;;;;;;;;;18.00;16.25;;;;;;;;6304469;22;45340;-73
2021/08/30 08:04:41;;;;;;;;;22.25;20.25;;;;;;;;6304923;22;45304;-74
2021/08/30 08:07:06;;;;;;;;;21.25;19.50;;;;;;;;6303490;22;45408;-75
2021/08/30 08:09:31;;;;;;;;;25.25;24.00;;;;;;;;6302204;22;45989;-75
2021/08/30 08:11:56;;;;;;;;;20.75;18.75;;;;;;;;6274913;22;45328;-75
2021/08/30 08:14:22;;;;;;;;;29.75;26.00;;;;;;;;6302800;22;45246;-75
2021/08/30 08:16:47;;;;;;;;;19.00;16.75;;;;;;;;6302442;22;45381;-75
2021/08/30 08:19:14;;;;;;;;;21.25;18.75;;;;;;;;6302821;22;46244;-75
2021/08/30 08:21:40;;;;;;;;;19.25;18.50;;;;;;;;6302764;22;45275;-75
2021/08/30 08:24:06;;;;;;;;;20.25;17.75;;;;;;;;6302506;22;45218;-75
2021/08/30 08:26:32;;;;;;;;;20.00;18.50;;;;;;;;6303004;22;45255;-75
2021/08/30 08:28:57;;;;;;;;;18.25;18.25;;;;;;;;6303190;22;46009;-75
2021/08/30 08:31:22;;;;;;;;;22.75;19.75;;;;;;;;6302791;22;45298;-75
2021/08/30 08:33:49;;;;;;;;;19.50;16.25;;;;;;;;6303498;22;45256;-75
2021/08/30 08:36:15;;;;;;;;;17.50;15.75;;;;;;;;6302526;22;45522;-75
2021/08/30 08:38:40;;;;;;;;;22.75;19.00;;;;;;;;6301710;22;47206;-76
2021/08/30 08:41:05;;;;;;;;;19.50;19.50;;;;;;;;6302676;22;45351;-75
2021/08/30 08:43:31;;;;;;;;;18.75;16.50;;;;;;;;6303427;22;45294;-75
2021/08/30 08:45:57;;;;;;;;;20.75;16.25;;;;;;;;6301967;22;45402;-75
2021/08/30 08:48:22;;;;;;;;;20.25;17.25;;;;;;;;6301594;22;46178;-75
2021/08/30 08:50:48;;;;;;;;;16.25;16.25;;;;;;;;6302708;22;45313;-75
2021/08/30 08:53:13;;;;;;;;;20.75;19.50;;;;;;;;6301526;22;45189;-75
2021/08/30 08:55:39;;;;;;;;;13.00;10.25;;;;;;;;6303122;22;45273;-75
2021/08/30 08:58:11;;;;;;;;;18.75;15.25;;;;;;;;6302135;22;46848;-76
2021/08/30 09:00:38;;;;;;;;;13.75;13.75;;;;;;;;6302341;22;45277;-76
2021/08/30 09:03:11;;;;;;;;;14.00;12.75;;;;;;;;6302929;22;45176;-75
2021/08/30 09:05:37;;;;;;;;;15.50;15.50;;;;;;;;6303109;22;45294;-74
2021/08/30 09:08:04;;;;;;;;;12.50;11.00;;;;;;;;6302710;22;45971;-75
2021/08/30 09:10:31;;;;;;;;;15.50;14.25;;;;;;;;6302838;22;45293;-74
2021/08/30 09:13:06;;;;;;;;;17.50;16.50;;;;;;;;6303175;22;45173;-75
2021/08/30 09:15:31;;;;;;;;;18.50;15.50;;;;;;;;6302911;22;45322;-75
2021/08/30 09:17:57;;;;;;;;;13.00;13.00;;;;;;;;6302450;22;46930;-75
2021/08/30 09:20:24;;;;;;;;;18.00;15.50;;;;;;;;6274933;22;45354;-75
2021/08/30 09:22:50;;;;;;;;;16.25;14.25;;;;;;;;6274167;22;45377;-75
2021/08/30 09:25:16;;;;;;;;;17.00;16.00;;;;;;;;6303037;22;45271;-75
2021/08/30 09:27:44;;;;;;;;;17.00;14.00;;;;;;;;6303121;22;46369;-75
2021/08/30 09:30:13;;;;;;;;;19.25;16.00;;;;;;;;6302259;22;45166;-75
2021/08/30 09:32:40;;;;;;;;;15.25;15.25;;;;;;;;6302598;22;45234;-75
2021/08/30 09:35:05;;;;;;;;;17.00;15.50;;;;;;;;6303279;22;45253;-75
2021/08/30 09:37:35;;;;;;;;;14.25;13.00;;;;;;;;6301840;22;46668;-74
2021/08/30 09:40:01;;;;;;;;;16.50;14.75;;;;;;;;6303131;22;45312;-75
2021/08/30 09:42:27;;;;;;;;;12.75;12.25;;;;;;;;6302852;22;45308;-76
2021/08/30 09:44:54;;;;;;;;;16.00;15.50;;;;;;;;6302697;22;45377;-76
2021/08/30 09:47:21;;;;;;;;;20.50;14.00;;;;;;;;6302032;22;46999;-75
2021/08/30 09:49:50;;;;;;;;;15.75;13.75;;;;;;;;6301737;22;45384;-75
2021/08/30 09:52:15;;;;;;;;;15.50;13.00;;;;;;;;6303148;22;45207;-76
2021/08/30 09:54:40;;;;;;;;;15.00;13.50;;;;;;;;6302451;22;45393;-75
2021/08/30 09:57:06;;;;;;;;;15.75;12.50;;;;;;;;6302885;22;45179;-75
2021/08/30 09:59:32;;;;;;;;;15.00;13.00;;;;;;;;6302567;22;45132;-77
2021/08/30 10:01:59;;;;;;;;;15.00;12.75;;;;;;;;6302822;22;45291;-76
2021/08/30 10:04:26;;;;;;;;;14.75;14.00;;;;;;;;6302108;22;45411;-74
2021/08/30 10:06:51;;;;;;;;;18.25;14.00;;;;;;;;6302360;22;45210;-76
2021/08/30 10:09:17;;;;;;;;;14.25;14.25;;;;;;;;6301963;22;45303;-76
2021/08/30 10:11:43;;;;;;;;;11.50;8.75;;;;;;;;6302053;22;45273;-75
2021/08/30 10:14:11;;;;;;;;;12.00;11.75;;;;;;;;6302969;22;45213;-74
2021/08/30 10:16:37;;;;;;;;;13.75;13.25;;;;;;;;6301885;22;46634;-75
2021/08/30 10:19:02;;;;;;;;;9.75;9.75;;;;;;;;6301853;22;45507;-74
2021/08/30 10:21:27;;;;;;;;;11.50;11.50;;;;;;;;6302239;22;45300;-75
2021/08/30 10:23:53;;;;;;;;;15.50;12.50;;;;;;;;6301939;22;45399;-75
2021/08/30 10:26:18;;;;;;;;;16.00;15.50;;;;;;;;6302428;22;45325;-74
2021/08/30 10:28:47;;;;;;;;;12.75;10.50;;;;;;;;6301485;22;45276;-74
2021/08/30 10:31:25;;;;;;;;;14.50;13.50;;;;;;;;6302307;22;45341;-76
2021/08/30 10:33:55;;;;;;;;;11.50;10.75;;;;;;;;6302359;22;45346;-75
2021/08/30 10:36:21;;;;;;;;;13.50;13.50;;;;;;;;6302766;22;45919;-76
2021/08/30 10:38:57;;;;;;;;;12.00;9.50;;;;;;;;6301332;22;45340;-74
2021/08/30 10:41:27;;;;;;;;;18.00;16.25;;;;;;;;6302914;22;45325;-75
2021/08/30 10:44:02;;;;;;;;;12.25;11.50;;;;;;;;6302431;22;45226;-74
2021/08/30 10:46:35;;;;;;;;;17.00;12.75;;;;;;;;6302371;22;46237;-75
2021/08/30 10:49:07;;;;;;;;;14.75;13.00;;;;;;;;6302437;22;45244;-75
2021/08/30 10:51:36;;;;;;;;;14.75;11.25;;;;;;;;6302646;22;45245;-75
2021/08/30 10:54:05;;;;;;;;;14.25;11.50;;;;;;;;6302366;22;45286;-76
2021/08/30 10:56:31;;;;;;;;;11.75;11.50;;;;;;;;6301664;22;47328;-76
2021/08/30 10:58:59;;;;;;;;;11.00;10.25;;;;;;;;6301982;22;45340;-74
2021/08/30 11:01:24;;;;;;;;;13.00;13.00;;;;;;;;6302351;22;45229;-74
2021/08/30 11:03:56;;;;;;;;;11.75;10.25;;;;;;;;6301548;22;45392;-74
2021/08/30 11:06:22;;;;;;;;;12.50;11.00;;;;;;;;6302161;22;45418;-74
2021/08/30 11:08:47;;;;;;;;;13.25;13.25;;;;;;;;6301434;22;45377;-74
2021/08/30 11:11:14;;;;;;;;;11.67;11.67;;;;;;;;6302645;22;45237;-76
2021/08/30 11:13:41;;;;;;;;;9.50;9.50;;;;;;;;6302341;22;45304;-75
2021/08/30 11:16:19;;;;;;;;;11.00;11.00;;;;;;;;6302186;22;45244;-75
2021/08/30 11:19:00;;;;;;;;;10.33;10.33;;;;;;;;6301431;22;45341;-76
2021/08/30 11:21:39;;;;;;;;;16.00;15.00;;;;;;;;6301777;22;45352;-75
2021/08/30 11:24:05;;;;;;;;;15.75;14.00;;;;;;;;6302557;22;45280;-74
2021/08/30 11:26:31;;;;;;;;;22.00;21.00;;;;;;;;6303500;22;45308;-75
2021/08/30 11:29:00;;;;;;;;;13.50;11.75;;;;;;;;6302918;22;45313;-75
2021/08/30 11:31:27;;;;;;;;;9.67;9.67;;;;;;;;6303003;22;45196;-74
2021/08/30 11:33:52;;;;;;;;;11.33;10.33;;;;;;;;6303053;22;45360;-74
2021/08/30 11:36:18;;;;;;;;;9.00;7.33;;;;;;;;6303154;22;45887;-76
2021/08/30 11:38:52;;;;;;;;;12.67;11.67;;;;;;;;6303631;22;45327;-75
2021/08/30 11:41:17;;;;;;;;;18.75;17.75;;;;;;;;6275044;22;45335;-76
2021/08/30 11:43:42;;;;;;;;;14.33;12.33;;;;;;;;6302831;22;45288;-75
2021/08/30 11:46:08;;;;;;;;;13.00;12.00;;;;;;;;6301709;22;46903;-75
2021/08/30 11:48:33;;;;;;;;;15.00;11.33;;;;;;;;6303463;22;45256;-75
2021/08/30 11:51:02;;;;;;;;;12.33;11.33;;;;;;;;6303063;22;45293;-75
2021/08/30 11:53:28;;;;;;;;;13.00;12.33;;;;;;;;6303195;22;45361;-75
2021/08/30 11:55:53;;;;;;;;;11.00;10.67;;;;;;;;6303424;22;45272;-75
2021/08/30 11:58:28;;;;;;;;;15.00;14.00;;;;;;;;6302698;22;45153;-75
2021/08/30 12:01:03;;;;;;;;;15.00;14.75;;;;;;;;6302087;22;45336;-75
2021/08/30 12:03:39;;;;;;;;;12.00;10.67;;;;;;;;6303107;22;45141;-75
2021/08/30 12:06:13;;;;;;;;;11.50;9.75;;;;;;;;6301704;22;46431;-75
2021/08/30 12:08:46;;;;;;;;;12.33;10.67;;;;;;;;6302949;22;45213;-75
2021/08/30 12:11:12;;;;;;;;;19.00;17.33;;;;;;;;6302599;22;45308;-75
2021/08/30 12:13:45;;;;;;;;;13.00;13.00;;;;;;;;6303429;22;45389;-75
2021/08/30 12:16:24;;;;;;;;;14.67;10.67;;;;;;;;6302765;22;46067;-75
2021/08/30 12:18:54;;;;;;;;;15.67;14.67;;;;;;;;6302766;22;45272;-74
2021/08/30 12:21:32;;;;;;;;;14.67;13.33;;;;;;;;6303590;22;45215;-75
2021/08/30 12:23:57;;;;;;;;;15.00;12.67;;;;;;;;6302904;22;45289;-74
2021/08/30 12:26:23;;;;;;;;;11.67;11.00;;;;;;;;6302361;22;46241;-76
2021/08/30 12:28:55;;;;;;;;;16.00;16.00;;;;;;;;6302116;22;45618;-76
2021/08/30 12:31:30;;;;;;;;;14.33;12.00;;;;;;;;6302408;22;45317;-74
2021/08/30 12:34:13;;;;;;;;;15.00;13.33;;;;;;;;6274367;22;45407;-76
2021/08/30 12:36:40;;;;;;;;;14.67;13.33;;;;;;;;6303287;22;46055;-76
2021/08/30 12:39:05;;;;;;;;;10.00;9.67;;;;;;;;6302913;22;45470;-75
2021/08/30 12:41:31;;;;;;;;;18.00;13.33;;;;;;;;6303154;22;45577;-74
2021/08/30 12:43:56;;;;;;;;;16.00;12.00;;;;;;;;6302955;22;45266;-76
2021/08/30 12:46:21;;;;;;;;;13.00;12.33;;;;;;;;6303591;22;46053;-74
2021/08/30 12:48:47;;;;;;;;;14.00;14.00;;;;;;;;6302066;22;45301;-75
2021/08/30 12:51:13;;;;;;;;;14.67;13.33;;;;;;;;6302794;22;45276;-74
2021/08/30 12:53:38;;;;;;;;;13.67;13.67;;;;;;;;6302747;22;45241;-75
2021/08/30 12:56:04;;;;;;;;;11.67;11.00;;;;;;;;6274556;22;48194;-76
2021/08/30 12:58:29;;;;;;;;;13.67;11.67;;;;;;;;6302984;22;45308;-76
2021/08/30 13:00:54;;;;;;;;;13.33;11.67;;;;;;;;6302735;22;45228;-76
2021/08/30 13:03:20;;;;;;;;;13.67;11.00;;;;;;;;6303130;22;45247;-76
2021/08/30 13:05:46;;;;;;;;;14.00;12.00;;;;;;;;6302550;22;45422;-75
2021/08/30 13:08:11;;;;;;;;;12.00;11.00;;;;;;;;6302404;22;45207;-75
2021/08/30 13:10:38;;;;;;;;;12.33;11.33;;;;;;;;6302843;22;45235;-75
2021/08/30 13:13:03;;;;;;;;;9.67;8.33;;;;;;;;6302500;22;45388;-75
2021/08/30 13:15:29;;;;;;;;;11.33;10.33;;;;;;;;6302424;22;46937;-75
2021/08/30 13:17:54;;;;;;;;;11.00;9.67;;;;;;;;6302498;22;45256;-74
2021/08/30 13:20:20;;;;;;;;;11.00;11.00;;;;;;;;6302630;22;45257;-75
2021/08/30 13:22:46;;;;;;;;;13.33;12.00;;;;;;;;6302317;22;45245;-74
2021/08/30 13:25:13;;;;;;;;;10.67;10.67;;;;;;;;6302871;22;47050;-75
2021/08/30 13:27:39;;;;;;;;;12.33;12.33;;;;;;;;6302482;22;45161;-75
2021/08/30 13:30:05;;;;;;;;;11.00;10.33;;;;;;;;6302308;22;45213;-77
2021/08/30 13:32:30;;;;;;;;;12.33;11.33;;;;;;;;6302090;22;45166;-75
2021/08/30 13:34:55;;;;;;;;;12.67;12.67;;;;;;;;6302809;22;46054;-75
2021/08/30 13:37:20;;;;;;;;;12.00;10.00;;;;;;;;6302577;22;45193;-75
2021/08/30 13:39:45;;;;;;;;;10.67;10.67;;;;;;;;6302853;22;45158;-74
2021/08/30 13:42:11;;;;;;;;;13.00;12.00;;;;;;;;6302892;22;45078;-75
2021/08/30 13:44:36;;;;;;;;;12.33;11.67;;;;;;;;6302526;22;45187;-75
2021/08/30 13:47:01;;;;;;;;;16.00;13.00;;;;;;;;6303337;22;45123;-75
2021/08/30 13:49:26;;;;;;;;;14.33;13.00;;;;;;;;6303029;22;45217;-75
2021/08/30 13:51:52;;;;;;;;;17.00;14.00;;;;;;;;6302981;22;45394;-75
2021/08/30 13:54:17;;;;;;;;;14.00;13.00;;;;;;;;6302132;22;47056;-76
2021/08/30 13:56:42;;;;;;;;;15.00;14.00;;;;;;;;6302348;22;45434;-74
2021/08/30 13:59:07;;;;;;;;;14.00;12.50;;;;;;;;6303027;22;45301;-75
2021/08/30 14:01:33;;;;;;;;;16.75;14.75;;;;;;;;6303108;22;45315;-75
2021/08/30 14:03:58;;;;;;;;;12.33;10.67;;;;;;;;6302313;22;46139;-75
2021/08/30 14:06:23;;;;;;;;;10.75;9.50;;;;;;;;6301883;22;45314;-76
2021/08/30 14:08:48;;;;;;;;;11.00;11.00;;;;;;;;6302057;22;45288;-75
2021/08/30 14:11:14;;;;;;;;;16.00;14.00;;;;;;;;6302118;22;45272;-75
2021/08/30 14:13:39;;;;;;;;;13.25;11.00;;;;;;;;6301780;22;46268;-75
2021/08/30 14:16:04;;;;;;;;;12.67;11.67;;;;;;;;6302642;22;45302;-75
2021/08/30 14:18:29;;;;;;;;;14.33;11.67;;;;;;;;6303117;22;45385;-75
2021/08/30 14:20:55;;;;;;;;;10.00;9.67;;;;;;;;6301887;22;45410;-74